Address 0x2d2614dbea5977e935d360ab9962ba6610e5b0e7 2

 
Txn Hash Method
Block
From
To
Value [Txn Fee]
0xd65a937a69a9a01bef60405916f02d7cd087f41689b8ab27d730dcb985fa040eDeposit221069772021-12-04 0:37:111 hr 42 mins ago0x2d2614dbea5977e935d360ab9962ba6610e5b0e7OUT 0x992ae1912ce6b608e0c0d2bf66259ab1ae62a6570 MATIC0.01283214
0xdd8be48cd76bced9d13c2aeb017d853d74c5122e4a19489fdd0248b3b3db4dafTransfer221069772021-12-04 0:37:111 hr 42 mins ago0x2d2614dbea5977e935d360ab9962ba6610e5b0e7SELF0x2d2614dbea5977e935d360ab9962ba6610e5b0e70 MATIC0.00006205122
0xf59695b91b910d8bbbdd7869f263668ec4bef5290104df00d1ae882d249359d3Swap Exact Token...221065752021-12-04 0:22:131 hr 57 mins ago0x2d2614dbea5977e935d360ab9962ba6610e5b0e7OUT QuickSwap: Router0 MATIC0.00508476
0x7e616cceb727b57a7d2cfa6446ea927aaea3719a3076ed9f034493851fcfc69aTransfer221065572021-12-04 0:21:331 hr 58 mins ago0x33a28d7a0c94599edb670fcce5dfa9d4c072314e IN 0x2d2614dbea5977e935d360ab9962ba6610e5b0e741.24 MATIC0.00105
0xd94144399a1de9b79fa5e33519cfad46ffd46ed17f55e9b45e6247d8f6d69706Swap Exact ETH F...221063592021-12-04 0:12:362 hrs 7 mins ago0x2d2614dbea5977e935d360ab9962ba6610e5b0e7OUT QuickSwap: Router42.99152242 MATIC0.00412578
0x8e3e2ccbb7fc9cfa3def52ed34da3875c3b9254d7caff77cc4c19de4a583b48bTransfer220847572021-12-03 10:34:1515 hrs 45 mins ago0x33a28d7a0c94599edb670fcce5dfa9d4c072314e IN 0x2d2614dbea5977e935d360ab9962ba6610e5b0e743 MATIC0.00105
0x6eb20b1af5d89c9238d29da53ba3dd7f3f154689b5f1cf33ff0ee486661f93d5Approve220847192021-12-03 10:31:5115 hrs 47 mins ago0x2d2614dbea5977e935d360ab9962ba6610e5b0e7OUT 0xc2132d05d31c914a87c6611c10748aeb04b58e8f0 MATIC0.00156216
0xc7954dc4a32cee901d99e983a84110cf45c4ca0d64ae74058874aca05310af4bApprove220834762021-12-03 9:36:4316 hrs 43 mins ago0x2d2614dbea5977e935d360ab9962ba6610e5b0e7OUT 0xc2132d05d31c914a87c6611c10748aeb04b58e8f0 MATIC0.00156216
0x4d6c37fbe192e602f997b056ced2a6d2cd2a9fa8ce963f27988f4b4789d21bf5Approve220833962021-12-03 9:33:1716 hrs 46 mins ago0x2d2614dbea5977e935d360ab9962ba6610e5b0e7OUT 0xc2132d05d31c914a87c6611c10748aeb04b58e8f0 MATIC0.00156216
0xa16e81ee25c57e595bc3198bf15f96d90ed6aa7981ab6ac4decf0426c2dbea03Swap Exact ETH F...220833292021-12-03 9:30:5916 hrs 48 mins ago0x2d2614dbea5977e935d360ab9962ba6610e5b0e7OUT SushiSwap: SushiV2Router0280.164832306 MATIC0.0037911
0xcb9b2247632191f0581755bb8f85e063de151f0b252d8d34e7608635014db988Deposit Token220831912021-12-03 9:26:1116 hrs 53 mins ago0x2d2614dbea5977e935d360ab9962ba6610e5b0e7OUT 0x0c2c2963a4353ffd839590f7cb1e7836883788140 MATIC0.018293093
0xc89d88a11cd9d9aaacddf9eaba647b6ca7e7bf267212d54c3ec7a96d7fdf8ebdApprove220831722021-12-03 9:25:3316 hrs 54 mins ago0x2d2614dbea5977e935d360ab9962ba6610e5b0e7OUT 0x7ceb23fd6bc0add59e62ac25578270cff1b9f6190 MATIC0.00140136
0x25f29a7843aeb8a30fdd1f6d29f2b0a13108b3c26d493cd34445781cc0c2ad22Transfer219676142021-11-30 8:38:173 days 17 hrs ago0x2d2614dbea5977e935d360ab9962ba6610e5b0e7OUT Polygon: MATIC Token80.19250469 MATIC0.005177931
0x8d0464f7f0cc169a1abdfff81509ecd9fa9f95649490d09782d59a52e29664bdStake219335912021-11-29 10:43:494 days 15 hrs ago0x2d2614dbea5977e935d360ab9962ba6610e5b0e7OUT 0x4d70a031fc76da6a9bc0c922101a05fa95c3a2270 MATIC0.0052829
0x7213952bf60b6f872ee4da35a1d814d57d6f28181396c1de749144e31afa4048Transfer219335612021-11-29 10:42:334 days 15 hrs ago0x33a28d7a0c94599edb670fcce5dfa9d4c072314e IN 0x2d2614dbea5977e935d360ab9962ba6610e5b0e780.2008 MATIC0.00147
0x660c78b0ab1da5dd7f59cbdd7d1d6a78d4387856ec270b460c2cd72394fc1651Swap Exact ETH F...219333332021-11-29 10:32:474 days 15 hrs ago0x2d2614dbea5977e935d360ab9962ba6610e5b0e7OUT SushiSwap: SushiV2Router02197.511098117758093 MATIC0.00581241
0xf084af224ab7519d6bb6db7173910b7bf43472a598a3373301fa470712fc8ba1Transfer218957502021-11-28 10:29:275 days 15 hrs ago0x2d2614dbea5977e935d360ab9962ba6610e5b0e7OUT Polygon: MATIC Token197.519686656758093 MATIC0.007588539
0xb09fd28cc42f79780cbd56289c3daf49bd446aca2123dc95fb6dab3428bb290dWrap218813642021-11-28 1:35:196 days 44 mins ago0x2d2614dbea5977e935d360ab9962ba6610e5b0e7OUT 0x6f370dba99e32a3cad959b341120db3c9e280ba60 MATIC0.00195024
0x932b01c6fe032fb26e5a4e9600d38c39af8aba1968199472b313b78e94ffba18Unwrap218810992021-11-28 1:24:056 days 55 mins ago0x2d2614dbea5977e935d360ab9962ba6610e5b0e7OUT 0x6f370dba99e32a3cad959b341120db3c9e280ba60 MATIC0.00173133
0x88a8129477d74ed45f3728527a4e8e6a37257710f615ef8748bbaf9ce86f9751Deposit218582302021-11-27 11:12:406 days 15 hrs ago0x2d2614dbea5977e935d360ab9962ba6610e5b0e7OUT 0x992ae1912ce6b608e0c0d2bf66259ab1ae62a6570 MATIC0.01283214
0x75a38401ff53e10a28df85cea05651cdc20a36d86d45001c90d111e1cca10c1eDeposit218581132021-11-27 11:08:426 days 15 hrs ago0x2d2614dbea5977e935d360ab9962ba6610e5b0e7OUT 0x6275518a63e891b1bc54feebbb5333776e32fabd0 MATIC0.00211368
0xc16bf4098717f4a6e87af98298bd16fd5e1c9db9e4d7d1f8c0cc1056d730e094Withdraw218581132021-11-27 11:08:426 days 15 hrs ago0x2d2614dbea5977e935d360ab9962ba6610e5b0e7OUT 0x6275518a63e891b1bc54feebbb5333776e32fabd0 MATIC0.0015768
0xf4687b5984f21e0d35b60bbda0f523074eb42f06c8b2071a5460630f3c3f3a61Withdraw218581132021-11-27 11:08:426 days 15 hrs ago0x2d2614dbea5977e935d360ab9962ba6610e5b0e7OUT 0x6275518a63e891b1bc54feebbb5333776e32fabd0 MATIC0.0055413
0xf1d9eaefa7f35562f5ac15055f39dceb5912251e7753c2a40c4e244331aa7f25Transfer218581132021-11-27 11:08:426 days 15 hrs ago0x2d2614dbea5977e935d360ab9962ba6610e5b0e7SELF0x2d2614dbea5977e935d360ab9962ba6610e5b0e70 MATIC0.001386
0x2e295fdf3a3ca0619ad5fe0ef9c5fd42eb3379a54d90e0128403f1e6fc88fa08Transfer218580542021-11-27 11:06:406 days 15 hrs ago0x2d2614dbea5977e935d360ab9962ba6610e5b0e7SELF0x2d2614dbea5977e935d360ab9962ba6610e5b0e70 MATIC0.001386
[ Download CSV Export 
Latest 4 internal transactions
Parent Txn Hash Block From To Value
0x25f29a7843aeb8a30fdd1f6d29f2b0a13108b3c26d493cd34445781cc0c2ad22219676142021-11-30 8:38:173 days 17 hrs ago Polygon: MATIC Token0x2d2614dbea5977e935d360ab9962ba6610e5b0e780.19250469 MATIC
0xf084af224ab7519d6bb6db7173910b7bf43472a598a3373301fa470712fc8ba1218957502021-11-28 10:29:275 days 15 hrs ago Polygon: MATIC Token0x2d2614dbea5977e935d360ab9962ba6610e5b0e7197.519686656758093932 MATIC
0x77a848b006bd488c1e8dbcbaef50585ae021e9e7a1806aa8f55db3b9e96f3e95217794562021-11-25 9:36:388 days 16 hrs ago Polygon: MATIC Token0x2d2614dbea5977e935d360ab9962ba6610e5b0e736 MATIC
0x3c39504f6acc749f0402162eef83b0df98201c7ad824e33d569d9227187d407b217416842021-11-24 10:05:009 days 16 hrs ago Polygon: MATIC Token0x2d2614dbea5977e935d360ab9962ba6610e5b0e787.34338667 MATIC
[ Download CSV Export 
Loading

Contract Name:
0 MATIC

Compiler Version
0

Optimization Enabled:
0 MATIC

Other Settings:
-NA-
Block Transaction Gas Used Reward
Age Block Fee Address BC Fee Address Voting Power Jailed Incoming
Block Uncle Number Difficulty Gas Used Reward
Loading
Loading
Make sure to use the "Vote Down" button for any spammy posts, and the "Vote Up" for interesting conversations.